Time;durP1;ratioP1;P1;durP2;ratioP2;P2;SDS_P1;SDS_P2;PMS_P1;PMS_P2;Temp;Humidity;BMP_temperature;BMP_pressure;BME280_temperature;BME280_humidity;BME280_pressure;Samples;Min_cycle;Max_cycle;Signal;HPM_P1;HPM_P2
2022/11/24 00:02:13;;;;;;;22.20;13.60;;;;;;;3.86;96.98;99245.87;1500784;88;21243;-79
2022/11/24 00:04:39;;;;;;;26.07;14.80;;;;;;;3.89;96.65;99243.48;1375276;88;21229;-78
2022/11/24 00:07:05;;;;;;;21.97;14.43;;;;;;;3.89;96.68;99240.38;1458292;87;21444;-78
2022/11/24 00:09:31;;;;;;;23.87;15.07;;;;;;;3.91;96.72;99241.05;1465422;87;21367;-79
2022/11/24 00:12:00;;;;;;;20.63;13.50;;;;;;;3.86;96.33;99243.75;1450814;89;21317;-79
2022/11/24 00:14:26;;;;;;;23.10;14.30;;;;;;;3.86;96.33;99243.75;1451062;89;21421;-78
2022/11/24 00:16:52;;;;;;;21.20;13.20;;;;;;;3.83;96.74;99237.71;1476835;87;21377;-79
2022/11/24 00:19:18;;;;;;;18.77;13.43;;;;;;;3.79;96.69;99237.71;1464502;87;22277;-79
2022/11/24 00:21:44;;;;;;;18.40;12.27;;;;;;;3.84;96.92;99247.80;1483139;87;22330;-79
2022/11/24 00:24:11;;;;;;;19.83;12.40;;;;;;;3.86;96.65;99251.11;1472783;87;21290;-79
2022/11/24 00:26:37;;;;;;;21.27;14.43;;;;;;;3.88;96.58;99255.71;1477918;87;22157;-79
2022/11/24 00:29:06;;;;;;;26.07;15.13;;;;;;;3.92;96.87;99253.19;1473940;87;21510;-80
2022/11/24 00:31:36;;;;;;;22.30;14.10;;;;;;;3.91;96.31;99261.16;1476031;87;22587;-80
2022/11/24 00:34:07;;;;;;;25.83;14.67;;;;;;;3.92;96.13;99261.53;1476035;87;21435;-78
2022/11/24 00:36:34;;;;;;;;;;;;;;;3.87;95.96;99255.38;1463525;89;22346;-79
2022/11/24 00:39:08;;;;;;;23.43;14.70;;;;;;;3.86;96.55;99266.00;1370446;89;20825;-79
2022/11/24 00:41:34;;;;;;;21.73;14.53;;;;;;;3.78;95.59;99269.97;1543728;89;21443;-79
2022/11/24 00:44:01;;;;;;;23.07;13.73;;;;;;;3.80;96.24;99269.97;1437255;89;22433;-79
2022/11/24 00:46:28;;;;;;;25.50;14.20;;;;;;;3.78;96.69;99274.02;1464191;88;21390;-79
2022/11/24 00:48:55;;;;;;;21.23;13.90;;;;;;;3.79;96.24;99276.14;1465690;86;21523;-78
2022/11/24 00:51:26;;;;;;;23.27;14.80;;;;;;;3.81;95.95;99265.08;1467821;86;21469;-78
2022/11/24 00:53:55;;;;;;;23.80;14.83;;;;;;;3.85;96.12;99261.22;1461331;88;21517;-77
2022/11/24 00:56:21;;;;;;;22.00;13.60;;;;;;;3.85;96.12;99261.22;1468521;86;21344;-77
2022/11/24 00:58:47;;;;;;;21.57;14.17;;;;;;;3.82;96.48;99266.72;1465300;86;21556;-80
2022/11/24 01:01:18;;;;;;;23.00;15.57;;;;;;;3.83;95.88;99262.72;1449401;86;21405;-79
2022/11/24 01:03:45;;;;;;;22.98;15.18;;;;;;;3.78;96.07;99262.72;1394045;87;22062;-80
2022/11/24 01:06:21;;;;;;;21.60;13.87;;;;;;;3.81;96.28;99271.62;1389503;88;21234;-79
2022/11/24 01:08:47;;;;;;;22.13;14.40;;;;;;;3.78;96.31;99269.27;1543291;86;22088;-80
2022/11/24 01:11:59;;;;;;;20.57;13.77;;;;;;;3.84;96.27;99279.20;1389336;89;21303;-80
2022/11/24 01:13:58;;;;;;;24.17;15.07;;;;;;;3.85;95.73;99278.23;1419053;86;22322;-79
2022/11/24 01:16:29;;;;;;;22.33;15.13;;;;;;;3.89;96.12;99277.02;1398628;88;21380;-77
2022/11/24 01:18:56;;;;;;;23.25;14.25;;;;;;;3.90;96.26;99289.14;1548169;88;21332;-76
2022/11/24 01:21:23;;;;;;;23.00;14.30;;;;;;;3.91;96.42;99279.48;1397124;89;22261;-78
2022/11/24 01:23:50;;;;;;;25.13;15.10;;;;;;;3.92;96.26;99283.30;1404567;89;21236;-78
2022/11/24 01:26:21;;;;;;;21.67;14.13;;;;;;;3.85;96.27;99278.23;1392525;89;22107;-78
2022/11/24 01:28:53;;;;;;;20.63;13.77;;;;;;;3.85;96.27;99278.23;1547838;89;21306;-78
2022/11/24 01:31:20;;;;;;;20.60;12.83;;;;;;;3.87;96.79;99281.55;1557102;86;21255;-78
2022/11/24 01:33:46;;;;;;;19.07;13.03;;;;;;;3.88;96.23;99274.52;1427858;86;21244;-76
2022/11/24 01:36:12;;;;;;;18.00;12.90;;;;;;;3.88;96.23;99274.52;1392039;89;21258;-78
2022/11/24 01:38:38;;;;;;;26.23;15.00;;;;;;;3.93;96.05;99282.33;1393102;89;21206;-77
2022/11/24 01:41:12;;;;;;;24.97;16.70;;;;;;;3.96;96.25;99278.61;1398645;86;22070;-78
2022/11/24 01:43:39;;;;;;;24.17;15.23;;;;;;;3.92;95.94;99275.44;1554177;86;21310;-78
2022/11/24 01:46:14;;;;;;;22.33;14.60;;;;;;;3.94;96.04;99281.39;1393605;86;21411;-78
2022/11/24 01:48:45;;;;;;;22.47;15.10;;;;;;;3.94;96.11;99284.00;1466521;86;22410;-77
2022/11/24 01:51:16;;;;;;;23.42;15.75;;;;;;;3.92;96.00;99289.84;1463168;87;21435;-78
2022/11/24 01:53:47;;;;;;;19.90;13.22;;;;;;;3.89;95.74;99291.42;1471296;87;21476;-78
2022/11/24 01:56:14;;;;;;;20.77;11.60;;;;;;;3.92;95.90;99292.46;1472824;87;21293;-78
2022/11/24 01:58:43;;;;;;;21.97;14.87;;;;;;;3.93;96.00;99294.11;1377516;90;21356;-76
2022/11/24 02:01:09;;;;;;;21.27;14.13;;;;;;;3.94;95.93;99290.55;1392492;90;22839;-77
2022/11/24 02:03:39;;;;;;;26.13;16.17;;;;;;;3.94;95.73;99295.78;1394440;89;21375;-78
2022/11/24 02:06:19;;;;;;;21.27;14.00;;;;;;;3.93;95.65;99297.20;1393478;87;21317;-78
2022/11/24 02:09:05;;;;;;;26.23;15.93;;;;;;;3.92;95.34;99299.00;1431497;89;22494;-78
2022/11/24 02:11:36;;;;;;;27.87;16.43;;;;;;;3.87;95.55;99298.56;1441730;87;21405;-78
2022/11/24 02:14:08;;;;;;;25.92;16.75;;;;;;;3.80;96.09;99299.58;1464454;87;21654;-78
2022/11/24 02:16:35;;;;;;;30.43;17.43;;;;;;;3.86;95.84;99311.80;1465009;87;21368;-77
2022/11/24 02:19:06;;;;;;;23.60;15.27;;;;;;;3.85;95.74;99310.95;1549326;87;21207;-77
2022/11/24 02:21:32;;;;;;;18.95;11.48;;;;;;;3.88;95.93;99309.38;1556202;87;21354;-77
2022/11/24 02:24:06;;;;;;;26.17;15.77;;;;;;;3.92;95.89;99309.48;1427230;88;21449;-75
2022/11/24 02:26:45;;;;;;;25.20;14.77;;;;;;;3.94;95.71;99311.48;1460789;87;21551;-78
2022/11/24 02:29:13;;;;;;;21.87;14.27;;;;;;;3.95;95.63;99313.13;1538481;89;21437;-76
2022/11/24 02:31:43;;;;;;;24.63;15.33;;;;;;;3.94;95.68;99314.11;1384380;89;22297;-78
2022/11/24 02:34:09;;;;;;;24.90;14.50;;;;;;;3.92;95.38;99313.89;1396427;90;21346;-77
2022/11/24 02:36:35;;;;;;;26.47;16.33;;;;;;;3.86;94.94;99315.24;1397587;89;22277;-77
2022/11/24 02:39:01;;;;;;;26.80;16.23;;;;;;;3.81;94.65;99309.08;1445044;87;21360;-77
2022/11/24 02:41:28;;;;;;;25.10;16.00;;;;;;;3.78;94.75;99312.45;1462222;87;22337;-77
2022/11/24 02:43:57;;;;;;;25.00;16.63;;;;;;;3.75;94.41;99311.41;1465133;87;21391;-78
2022/11/24 02:46:24;;;;;;;25.77;16.73;;;;;;;3.76;95.09;99315.67;1464817;87;21418;-78
2022/11/24 02:48:50;;;;;;;26.57;16.27;;;;;;;3.81;95.35;99321.34;1470916;87;21398;-78
2022/11/24 02:51:17;;;;;;;24.53;16.30;;;;;;;3.83;95.40;99324.67;1541597;87;21243;-78
2022/11/24 02:53:43;;;;;;;27.27;16.13;;;;;;;3.86;95.36;99324.89;1416725;88;21303;-78
2022/11/24 02:56:09;;;;;;;23.70;15.70;;;;;;;3.87;95.31;99325.23;1394320;89;21227;-78
2022/11/24 02:58:35;;;;;;;28.30;17.43;;;;;;;3.85;95.38;99322.73;1390979;89;22328;-79
2022/11/24 03:01:03;;;;;;;30.40;19.47;;;;;;;3.83;95.56;99320.26;1409499;89;21391;-79
2022/11/24 03:03:29;;;;;;;30.13;18.50;;;;;;;3.80;95.02;99319.22;1388433;89;21243;-78
2022/11/24 03:05:55;;;;;;;25.97;16.87;;;;;;;3.79;95.32;99320.64;1441992;87;21435;-79
2022/11/24 03:08:21;;;;;;;27.00;16.37;;;;;;;3.80;95.53;99327.55;1472706;87;21465;-79
2022/11/24 03:10:48;;;;;;;23.43;15.23;;;;;;;3.80;95.46;99324.45;1462725;87;23225;-76
2022/11/24 03:13:14;;;;;;;34.67;19.53;;;;;;;3.82;95.69;99320.38;1471646;87;21493;-79
2022/11/24 03:15:40;;;;;;;26.30;16.33;;;;;;;3.88;95.62;99331.63;1478706;87;21361;-78
2022/11/24 03:18:06;;;;;;;26.63;16.60;;;;;;;3.91;95.83;99329.23;1461916;89;21413;-78
2022/11/24 03:20:32;;;;;;;25.63;17.40;;;;;;;3.93;95.56;99337.78;1463586;87;21473;-79
2022/11/24 03:22:58;;;;;;;31.43;17.27;;;;;;;3.90;95.34;99331.50;1461599;89;21345;-79
2022/11/24 03:25:25;;;;;;;29.30;18.70;;;;;;;3.82;95.33;99325.13;1471494;87;21803;-77
2022/11/24 03:27:51;;;;;;;33.93;20.73;;;;;;;3.83;95.40;99340.38;1467965;87;21470;-79
2022/11/24 03:30:18;;;;;;;36.27;22.73;;;;;;;3.79;95.97;99335.86;1472840;87;21322;-78
2022/11/24 03:32:44;;;;;;;36.63;21.83;;;;;;;3.82;96.49;99342.62;1477335;87;21396;-80
2022/11/24 03:35:10;;;;;;;32.50;19.43;;;;;;;3.82;96.01;99341.31;1457311;89;21507;-80
2022/11/24 03:37:37;;;;;;;31.93;18.90;;;;;;;3.81;95.95;99342.28;1463962;87;21523;-79
2022/11/24 03:40:04;;;;;;;39.97;19.37;;;;;;;3.81;95.53;99339.66;1460882;89;21390;-79
2022/11/24 03:42:30;;;;;;;36.53;19.57;;;;;;;3.78;95.49;99343.86;1478533;87;21354;-79
2022/11/24 03:44:56;;;;;;;32.13;20.43;;;;;;;3.78;95.74;99340.75;1462908;89;21413;-78
2022/11/24 03:47:22;;;;;;;28.60;18.40;;;;;;;3.76;96.25;99347.08;1463206;87;21369;-79
2022/11/24 03:49:48;;;;;;;33.77;19.37;;;;;;;3.72;97.10;99348.30;1464115;86;21479;-78
2022/11/24 03:52:14;;;;;;;27.27;17.90;;;;;;;3.72;97.10;99348.30;1467426;88;22278;-79
2022/11/24 03:54:41;;;;;;;28.70;17.93;;;;;;;3.69;97.22;99347.27;1472006;87;21398;-79
2022/11/24 03:57:07;;;;;;;31.87;19.70;;;;;;;3.71;97.08;99352.72;1460093;89;21419;-79
2022/11/24 03:59:33;;;;;;;30.93;19.67;;;;;;;3.68;97.26;99343.79;1459364;89;21542;-79
2022/11/24 04:01:59;;;;;;;32.37;20.80;;;;;;;3.74;97.39;99351.15;1463319;87;21420;-78
2022/11/24 04:04:25;;;;;;;32.07;19.57;;;;;;;3.75;97.24;99355.41;1469131;87;21596;-79
2022/11/24 04:06:51;;;;;;;31.80;19.17;;;;;;;3.73;97.73;99353.87;1468449;87;21376;-79
2022/11/24 04:09:17;;;;;;;29.40;19.40;;;;;;;3.71;97.41;99362.33;1464796;89;21583;-79
2022/11/24 04:14:29;;;;;;;33.07;19.97;;;;;;;3.65;97.75;99369.39;1467796;87;21390;-79
2022/11/24 04:16:55;;;;;;;31.70;18.03;;;;;;;3.65;97.75;99369.39;1459936;87;21450;-78
2022/11/24 04:19:20;;;;;;;30.60;19.67;;;;;;;3.58;97.62;99362.55;1458128;89;21379;-79
2022/11/24 04:21:46;;;;;;;33.47;18.87;;;;;;;3.63;97.47;99373.47;1466665;87;22263;-78
2022/11/24 04:24:13;;;;;;;34.30;20.50;;;;;;;3.65;97.61;99376.77;1466106;87;22012;-76
2022/11/24 04:26:39;;;;;;;29.87;19.83;;;;;;;3.67;98.05;99380.57;1452241;88;21498;-75
2022/11/24 04:29:05;;;;;;;27.87;18.30;;;;;;;3.64;98.08;99380.34;1463717;87;21403;-79
2022/11/24 04:32:27;;;;;;;29.87;19.17;;;;;;;3.65;97.96;99383.78;1419124;86;21354;-79
2022/11/24 04:34:53;;;;;;;;;;;;;;;3.63;98.37;99387.03;1396315;89;21236;-80
2022/11/24 04:37:19;;;;;;;34.03;19.97;;;;;;;3.57;98.65;99389.20;1547672;87;20241;-78
2022/11/24 04:39:45;;;;;;;28.67;17.37;;;;;;;3.57;98.13;99390.50;1397079;90;21266;-79
2022/11/24 04:42:12;;;;;;;28.63;18.60;;;;;;;3.55;98.09;99392.41;1471483;87;21432;-78
2022/11/24 04:44:38;;;;;;;27.97;17.87;;;;;;;3.54;97.94;99399.92;1540180;87;21995;-79
2022/11/24 04:47:04;;;;;;;31.03;18.77;;;;;;;3.55;98.59;99397.64;1562035;87;21273;-79
2022/11/24 04:49:30;;;;;;;30.30;20.03;;;;;;;3.57;98.73;99398.36;1391813;89;22836;-77
2022/11/24 04:51:57;;;;;;;28.10;18.63;;;;;;;3.59;98.98;99401.66;1425132;87;22253;-79
2022/11/24 04:54:23;;;;;;;36.97;20.17;;;;;;;3.57;98.76;99403.59;1469730;87;22253;-79
2022/11/24 04:56:52;;;;;;;38.87;22.23;;;;;;;3.56;98.82;99416.30;1473953;87;22293;-79
2022/11/24 04:59:19;;;;;;;37.07;22.70;;;;;;;3.48;98.91;99412.20;1466884;87;21479;-80
2022/11/24 05:01:46;;;;;;;27.80;19.37;;;;;;;3.48;98.91;99412.20;1464638;87;22348;-79
2022/11/24 05:04:14;;;;;;;33.60;20.53;;;;;;;3.51;99.04;99417.19;1463041;87;21576;-80
2022/11/24 05:06:41;;;;;;;29.70;18.50;;;;;;;3.54;99.08;99427.39;1386622;88;21286;-80
2022/11/24 05:09:08;;;;;;;39.03;22.70;;;;;;;3.55;99.09;99426.91;1394177;89;21448;-79
2022/11/24 05:11:34;;;;;;;40.13;23.33;;;;;;;3.53;98.63;99434.05;1387833;90;21213;-80
2022/11/24 05:14:00;;;;;;;38.90;21.63;;;;;;;3.53;98.63;99434.05;1406993;87;22151;-79
2022/11/24 05:16:26;;;;;;;38.23;21.83;;;;;;;3.51;99.04;99431.58;1478557;87;21314;-77
2022/11/24 05:18:52;;;;;;;35.27;20.60;;;;;;;3.46;98.96;99431.59;1467021;87;22351;-78
2022/11/24 05:21:18;;;;;;;35.33;21.07;;;;;;;3.45;99.25;99439.90;1469228;87;21447;-80
2022/11/24 05:23:44;;;;;;;37.27;23.23;;;;;;;3.41;99.25;99443.73;1459706;87;21303;-79
2022/11/24 05:26:11;;;;;;;34.87;20.83;;;;;;;3.42;99.34;99441.45;1471372;87;22108;-79
2022/11/24 05:28:37;;;;;;;34.10;20.80;;;;;;;3.44;99.48;99446.09;1466431;87;22095;-80
2022/11/24 05:31:04;;;;;;;37.23;20.80;;;;;;;3.44;99.48;99446.09;1456373;87;21449;-80
2022/11/24 05:33:32;;;;;;;34.33;21.30;;;;;;;3.46;100.00;99449.42;1463032;87;21343;-78
2022/11/24 05:36:04;;;;;;;39.87;23.30;;;;;;;3.33;98.84;99456.12;1459504;89;21544;-77
2022/11/24 05:38:31;;;;;;;39.33;22.40;;;;;;;3.30;99.30;99460.30;1462441;89;22339;-82
2022/11/24 05:41:05;;;;;;;42.37;22.60;;;;;;;3.30;99.30;99460.30;1455383;89;21548;-81
2022/11/24 05:43:31;;;;;;;30.37;19.67;;;;;;;3.27;99.40;99464.47;1461907;89;23254;-82
2022/11/24 05:45:59;;;;;;;35.87;21.23;;;;;;;3.25;99.93;99464.23;1456390;89;22082;-79
2022/11/24 05:48:26;;;;;;;33.53;20.47;;;;;;;3.23;100.00;99469.61;1463371;89;22113;-80
2022/11/24 05:50:55;;;;;;;30.73;18.90;;;;;;;3.22;100.00;99475.77;1458155;89;22084;-78
2022/11/24 05:53:22;;;;;;;33.60;21.00;;;;;;;3.22;100.00;99477.08;1457858;89;22223;-80
2022/11/24 05:55:49;;;;;;;38.53;21.70;;;;;;;3.27;100.00;99479.34;1480111;89;22251;-79
2022/11/24 05:58:15;;;;;;;34.40;20.37;;;;;;;3.28;100.00;99484.91;1466299;89;22078;-79
2022/11/24 06:00:41;;;;;;;34.07;21.50;;;;;;;3.26;99.98;99486.36;1464539;89;23085;-79
2022/11/24 06:03:09;;;;;;;35.73;22.13;;;;;;;3.23;100.00;99493.62;1462402;88;21545;-78
2022/11/24 06:05:35;;;;;;;35.80;21.87;;;;;;;3.14;100.00;99507.78;1462670;88;22175;-80
2022/11/24 06:08:01;;;;;;;33.33;20.47;;;;;;;3.10;100.00;99503.73;1466248;89;22169;-78
2022/11/24 06:10:28;;;;;;;31.40;18.07;;;;;;;3.11;100.00;99509.34;1457278;89;22194;-80
2022/11/24 06:12:54;;;;;;;37.27;20.03;;;;;;;3.04;100.00;99515.17;1387762;88;22337;-79
2022/11/24 06:15:20;;;;;;;36.17;19.30;;;;;;;3.04;100.00;99515.17;1426552;89;21413;-77
2022/11/24 06:17:57;;;;;;;36.83;21.00;;;;;;;3.02;100.00;99519.23;1459797;89;22101;-80
2022/11/24 06:20:24;;;;;;;43.30;25.53;;;;;;;2.92;100.00;99523.51;1461824;89;23066;-79
2022/11/24 06:22:51;;;;;;;35.93;22.03;;;;;;;2.94;100.00;99522.92;1379057;90;22079;-78
2022/11/24 06:25:17;;;;;;;35.40;21.17;;;;;;;2.86;100.00;99526.61;1395203;88;22857;-77
2022/11/24 06:27:44;;;;;;;38.27;23.03;;;;;;;2.86;100.00;99533.14;1420505;86;22226;-77
2022/11/24 06:30:12;;;;;;;42.60;25.80;;;;;;;2.88;100.00;99531.25;1449527;88;22133;-79
2022/11/24 06:32:43;;;;;;;44.17;23.33;;;;;;;2.91;100.00;99533.14;1383179;89;21901;-79
2022/11/24 06:35:07;;;;;;;39.87;23.43;;;;;;;2.87;100.00;99531.70;1540534;89;22067;-79
2022/11/24 06:37:36;;;;;;;36.67;22.93;;;;;;;2.87;100.00;99545.25;1385703;89;21976;-76
2022/11/24 06:40:02;;;;;;;37.03;23.20;;;;;;;2.85;100.00;99548.45;1382640;90;21963;-77
2022/11/24 06:42:28;;;;;;;35.67;22.50;;;;;;;2.83;100.00;99551.67;1389984;89;23013;-79
2022/11/24 06:44:54;;;;;;;37.97;20.03;;;;;;;2.77;100.00;99560.00;1387687;88;22072;-78
2022/11/24 06:47:20;;;;;;;38.50;21.50;;;;;;;2.75;100.00;99563.20;1385479;89;21318;-77
2022/11/24 06:49:46;;;;;;;35.23;22.07;;;;;;;2.80;100.00;99563.67;1444364;88;21346;-80
2022/11/24 06:52:12;;;;;;;31.67;19.73;;;;;;;2.87;100.00;99571.38;1461023;89;21360;-81
2022/11/24 06:54:38;;;;;;;38.90;22.97;;;;;;;2.94;100.00;99577.81;1456254;88;21737;-80
2022/11/24 06:57:04;;;;;;;36.00;21.67;;;;;;;3.00;100.00;99572.10;1452286;89;21925;-80
2022/11/24 06:59:30;;;;;;;34.90;21.70;;;;;;;3.03;100.00;99578.88;1457256;89;22064;-79
2022/11/24 07:01:56;;;;;;;41.37;22.37;;;;;;;3.05;100.00;99583.03;1463120;89;21376;-79
2022/11/24 07:04:22;;;;;;;47.70;23.60;;;;;;;3.04;100.00;99585.27;1460277;89;22222;-80
2022/11/24 07:06:48;;;;;;;36.07;21.30;;;;;;;3.04;100.00;99586.58;1463729;89;23071;-80
2022/11/24 07:09:14;;;;;;;38.00;24.80;;;;;;;3.04;100.00;99580.53;1458862;89;21404;-79
2022/11/24 07:11:40;;;;;;;35.53;21.60;;;;;;;3.10;100.00;99587.41;1459490;89;22109;-80
2022/11/24 07:14:07;;;;;;;38.83;22.17;;;;;;;3.15;100.00;99583.95;1457744;89;22152;-80
2022/11/24 07:16:33;;;;;;;39.50;22.23;;;;;;;3.09;100.00;99589.67;1455667;89;22028;-77
2022/11/24 07:19:00;;;;;;;48.13;22.93;;;;;;;3.08;100.00;99593.25;1439763;90;23058;-80
2022/11/24 07:21:28;;;;;;;37.37;23.80;;;;;;;3.12;100.00;99595.97;1439444;89;22110;-79
2022/11/24 07:23:56;;;;;;;41.60;24.03;;;;;;;3.13;100.00;99595.00;1459303;89;22659;-78
2022/11/24 07:26:23;;;;;;;44.07;24.57;;;;;;;3.17;100.00;99595.62;1382183;90;21999;-78
2022/11/24 07:28:50;;;;;;;36.40;22.90;;;;;;;3.20;100.00;99592.76;1381833;89;21933;-79
2022/11/24 07:31:19;;;;;;;35.70;21.70;;;;;;;3.25;100.00;99596.30;1386697;89;22029;-78
2022/11/24 07:33:53;;;;;;;41.40;23.73;;;;;;;3.31;100.00;99604.97;1449787;89;21991;-81
2022/11/24 07:36:20;;;;;;;42.53;23.20;;;;;;;3.37;100.00;99603.20;1469397;89;22162;-81
2022/11/24 07:38:47;;;;;;;39.00;24.20;;;;;;;3.29;100.00;99608.20;1454258;89;22117;-84
2022/11/24 07:41:19;;;;;;;35.07;22.10;;;;;;;3.31;100.00;99608.89;1390005;89;21933;-83
2022/11/24 07:43:46;;;;;;;43.00;23.70;;;;;;;3.32;100.00;99611.40;1382699;89;22027;-83
2022/11/24 07:46:15;;;;;;;45.67;25.10;;;;;;;3.30;100.00;99609.38;1381317;90;22118;-83
2022/11/24 07:48:42;;;;;;;38.00;23.77;;;;;;;3.30;100.00;99609.38;1365406;90;21339;-83
2022/11/24 07:51:08;;;;;;;37.80;23.20;;;;;;;3.34;100.00;99616.52;1392758;89;22038;-84
2022/11/24 07:53:35;;;;;;;55.10;28.70;;;;;;;3.41;100.00;99620.30;1378839;90;22781;-81
2022/11/24 07:56:03;;;;;;;109.13;55.17;;;;;;;3.41;100.00;99620.30;1403692;87;21279;-83
2022/11/24 07:58:32;;;;;;;73.30;38.10;;;;;;;3.49;100.00;99617.91;1371294;89;22830;-83
2022/11/24 08:00:58;;;;;;;95.90;54.33;;;;;;;3.52;100.00;99621.59;1370869;90;22614;-82
2022/11/24 08:03:24;;;;;;;61.50;34.37;;;;;;;3.56;100.00;99626.09;1445871;90;22858;-84
2022/11/24 08:05:58;;;;;;;54.60;34.23;;;;;;;3.56;100.00;99626.09;1448350;90;21375;-84
2022/11/24 08:08:25;;;;;;;59.50;37.07;;;;;;;3.58;100.00;99626.81;1372275;90;21331;-84
2022/11/24 08:10:51;;;;;;;52.23;30.50;;;;;;;3.59;100.00;99629.30;1373550;90;21279;-86
2022/11/24 08:13:18;;;;;;;35.53;22.33;;;;;;;3.61;100.00;99637.86;1357844;91;22010;-83
2022/11/24 08:15:45;;;;;;;36.73;22.97;;;;;;;3.57;100.00;99639.07;1373155;90;21220;-83
2022/11/24 08:18:11;;;;;;;35.57;21.27;;;;;;;3.56;100.00;99632.16;1379538;90;21331;-83
2022/11/24 08:20:37;;;;;;;39.57;22.63;;;;;;;3.56;100.00;99632.16;1528820;90;22085;-81
2022/11/24 08:23:03;;;;;;;67.63;37.27;;;;;;;3.52;100.00;99635.98;1373792;90;21248;-82
2022/11/24 08:25:31;;;;;;;37.20;23.27;;;;;;;3.57;100.00;99643.48;1401923;88;22330;-83
2022/11/24 08:28:03;;;;;;;37.70;24.00;;;;;;;3.58;100.00;99645.13;1468538;88;21514;-83
2022/11/24 08:30:30;;;;;;;40.57;25.27;;;;;;;3.56;100.00;99641.80;1471149;88;21966;-83
2022/11/24 08:32:59;;;;;;;37.23;21.47;;;;;;;3.59;100.00;99644.99;1392123;88;22205;-82
2022/11/24 08:35:27;;;;;;;40.27;23.73;;;;;;;3.59;100.00;99644.99;1389467;88;21442;-82
2022/11/24 08:37:53;;;;;;;42.93;25.47;;;;;;;3.73;100.00;99658.77;1462534;88;21531;-82
2022/11/24 08:40:20;;;;;;;45.13;29.93;;;;;;;3.82;100.00;99654.10;1473601;88;22363;-82
2022/11/24 08:42:46;;;;;;;41.03;25.37;;;;;;;3.88;100.00;99654.91;1449883;88;21539;-82
2022/11/24 08:45:12;;;;;;;35.73;23.40;;;;;;;3.90;100.00;99656.12;1470502;88;21975;-82
2022/11/24 08:47:38;;;;;;;39.33;23.70;;;;;;;3.91;100.00;99655.15;1455712;87;21401;-83
2022/11/24 08:50:06;;;;;;;43.53;25.43;;;;;;;3.87;100.00;99662.42;1484964;87;21393;-82
2022/11/24 08:52:32;;;;;;;44.07;26.00;;;;;;;3.88;100.00;99665.39;1411633;87;21648;-81
2022/11/24 08:54:58;;;;;;;37.30;23.67;;;;;;;3.90;100.00;99662.18;1485830;87;22420;-83
2022/11/24 08:57:24;;;;;;;34.70;23.57;;;;;;;3.98;100.00;99667.63;1484769;87;21459;-81
2022/11/24 08:59:50;;;;;;;38.17;22.43;;;;;;;4.03;100.00;99664.17;1489749;87;21370;-81
2022/11/24 09:02:16;;;;;;;33.60;20.53;;;;;;;4.07;100.00;99662.95;1485931;87;21444;-83
2022/11/24 09:04:43;;;;;;;35.57;21.13;;;;;;;4.06;100.00;99662.61;1493456;87;22503;-83
2022/11/24 09:07:09;;;;;;;31.17;20.10;;;;;;;4.05;100.00;99658.31;1483096;87;21377;-82
2022/11/24 09:09:35;;;;;;;34.27;20.40;;;;;;;3.96;100.00;99670.84;1484007;87;21378;-82
2022/11/24 09:12:01;;;;;;;31.53;19.97;;;;;;;3.96;100.00;99662.98;1491558;87;22115;-81
2022/11/24 09:14:28;;;;;;;34.73;19.90;;;;;;;3.98;100.00;99668.94;1487840;87;21347;-83
2022/11/24 09:16:54;;;;;;;34.73;20.00;;;;;;;3.93;100.00;99667.64;1482472;87;21614;-82
2022/11/24 09:19:22;;;;;;;32.17;18.27;;;;;;;3.93;100.00;99668.47;1490306;87;22399;-83
2022/11/24 09:21:48;;;;;;;31.10;18.00;;;;;;;3.93;100.00;99671.09;1493543;87;21510;-81
2022/11/24 09:24:15;;;;;;;36.23;22.43;;;;;;;3.88;100.00;99673.72;1489063;87;22256;-83
2022/11/24 09:26:42;;;;;;;38.17;23.57;;;;;;;3.92;100.00;99666.82;1440778;90;21473;-82
2022/11/24 09:29:10;;;;;;;30.53;18.73;;;;;;;3.90;100.00;99667.41;1448780;90;21391;-83
2022/11/24 09:31:38;;;;;;;32.00;20.97;;;;;;;3.82;100.00;99671.12;1359360;91;21281;-82
2022/11/24 09:34:08;;;;;;;35.53;22.37;;;;;;;3.87;100.00;99675.52;1407513;90;21472;-82
2022/11/24 09:36:35;;;;;;;45.47;30.13;;;;;;;3.95;100.00;99670.50;1450522;90;21406;-83
2022/11/24 09:39:02;;;;;;;37.83;26.20;;;;;;;4.03;100.00;99678.57;1444678;90;22669;-84
2022/11/24 09:41:59;;;;;;;44.07;29.33;;;;;;;4.11;100.00;99675.31;1448622;90;21583;-85
2022/11/24 09:44:49;;;;;;;46.07;29.60;;;;;;;4.18;100.00;99673.87;1448740;90;21525;-85
2022/11/24 09:47:38;;;;;;;41.93;28.57;;;;;;;4.25;100.00;99680.73;1447597;90;21561;-82
2022/11/24 09:50:24;;;;;;;43.60;29.27;;;;;;;4.27;100.00;99676.22;1448793;90;22088;-84
2022/11/24 09:53:05;;;;;;;48.53;29.03;;;;;;;4.24;100.00;99684.33;1450838;90;21557;-85
2022/11/24 09:55:39;;;;;;;34.73;21.10;;;;;;;4.25;100.00;99673.70;1438271;90;21575;-84
2022/11/24 09:58:43;;;;;;;39.87;25.33;;;;;;;4.21;100.00;99675.41;1440809;90;21473;-84
2022/11/24 10:01:25;;;;;;;34.23;22.50;;;;;;;4.18;100.00;99676.97;1450447;90;22068;-83
2022/11/24 10:03:53;;;;;;;30.20;19.90;;;;;;;4.21;100.00;99674.11;1450307;90;21501;-84
2022/11/24 10:06:30;;;;;;;38.97;23.93;;;;;;;4.29;100.00;99673.00;1446680;90;22257;-83
2022/11/24 10:09:37;;;;;;;36.97;22.63;;;;;;;4.26;100.00;99673.26;1449178;90;21376;-81
2022/11/24 10:12:21;;;;;;;29.27;18.43;;;;;;;4.24;100.00;99674.67;1448245;90;21466;-85
2022/11/24 10:15:44;;;;;;;30.47;17.60;;;;;;;4.25;100.00;99679.43;1437680;90;22574;-83
2022/11/24 10:18:54;;;;;;;29.73;17.37;;;;;;;4.19;100.00;99684.69;1531334;90;21238;-85
2022/11/24 10:22:05;;;;;;;31.50;20.57;;;;;;;4.14;99.57;99684.71;1531593;90;21201;-85
2022/11/24 10:25:15;;;;;;;43.80;27.40;;;;;;;4.17;99.62;99689.70;1379721;91;21325;-83
2022/11/24 10:27:45;;;;;;;34.27;20.97;;;;;;;4.15;98.81;99681.16;1470875;89;22433;-84
2022/11/24 10:30:19;;;;;;;20.40;13.95;;;;;;;4.21;99.52;99685.41;1441805;89;22322;-83
2022/11/24 10:32:53;;;;;;;22.73;13.47;;;;;;;4.13;97.98;99686.50;1437914;90;21387;-84
2022/11/24 10:35:24;;;;;;;27.13;17.47;;;;;;;4.05;97.44;99689.73;1455484;89;21470;-82
2022/11/24 10:38:13;;;;;;;21.83;15.23;;;;;;;4.03;97.92;99687.73;1458239;89;21435;-84
2022/11/24 10:40:57;;;;;;;23.43;14.93;;;;;;;4.03;98.16;99682.50;1456834;89;21494;-84
2022/11/24 10:43:29;;;;;;;28.83;17.77;;;;;;;4.04;98.00;99684.16;1442850;90;21379;-85
2022/11/24 10:46:11;;;;;;;28.57;15.58;;;;;;;4.10;98.76;99687.23;1383995;90;21316;-84
2022/11/24 10:48:48;;;;;;;29.87;18.40;;;;;;;4.13;98.92;99686.98;1510356;89;22404;-84
2022/11/24 10:51:31;;;;;;;33.37;16.70;;;;;;;4.18;99.61;99688.77;1462555;89;23059;-86
2022/11/24 10:54:02;;;;;;;32.23;19.23;;;;;;;4.20;99.68;99686.38;1442583;90;21476;-85
2022/11/24 10:56:41;;;;;;;246.28;102.10;;;;;;;4.18;98.99;99680.42;1464346;89;21634;-84
2022/11/24 10:59:28;;;;;;;379.83;173.80;;;;;;;4.20;99.03;99680.28;1459965;89;21930;-84
2022/11/24 11:01:54;;;;;;;61.47;34.80;;;;;;;4.20;98.60;99682.90;1461992;89;22440;-84
2022/11/24 11:04:28;;;;;;;52.20;32.57;;;;;;;4.23;99.09;99687.88;1463409;89;21391;-84
2022/11/24 11:07:07;;;;;;;46.50;28.37;;;;;;;4.27;99.34;99677.05;1460180;89;21428;-84
2022/11/24 11:09:33;;;;;;;30.23;17.63;;;;;;;4.30;98.40;99674.66;1458298;89;21591;-84
2022/11/24 11:12:11;;;;;;;34.43;20.43;;;;;;;4.34;99.96;99669.98;1460843;89;21560;-84
2022/11/24 11:14:37;;;;;;;31.97;18.87;;;;;;;4.39;99.04;99671.27;1462365;87;21472;-85
2022/11/24 11:17:27;;;;;;;36.00;24.03;;;;;;;4.44;99.19;99675.66;1460861;89;21465;-84
2022/11/24 11:19:55;;;;;;;42.10;27.60;;;;;;;4.46;98.64;99681.61;1461916;89;21619;-84
2022/11/24 11:22:31;;;;;;;29.83;19.83;;;;;;;4.43;98.23;99677.94;1465205;89;21604;-84
2022/11/24 11:25:21;;;;;;;25.67;16.13;;;;;;;4.43;98.09;99679.25;1445198;88;21666;-86
2022/11/24 11:27:48;;;;;;;49.00;32.50;;;;;;;4.42;97.87;99678.88;1467464;87;21436;-87
2022/11/24 11:30:29;;;;;;;31.30;17.10;;;;;;;4.41;97.20;99682.95;1465556;87;21372;-82
2022/11/24 11:32:59;;;;;;;32.67;20.08;;;;;;;4.41;96.96;99685.09;1442091;88;21597;-86
2022/11/24 11:35:27;;;;;;;36.83;20.00;;;;;;;4.38;96.06;99690.58;1379277;90;21898;-86
2022/11/24 11:38:00;;;;;;;58.33;33.63;;;;;;;4.42;97.26;99695.09;1378744;89;21310;-86